Armorel, Arkansas
Current Conditions -  °F | °C
As of 9:53 AM on Friday 28 Nov 2014 (Local Time) from KHKA Reporting Station
Clear Clear  
Wind Chill: 44°   Ceiling: Unl
Heat Index: 49°   Visibility: 10mi
Dew Point: 29°   Wind: 13mph
Humidity: 46%   Direction: 180°S
Pressure: 30.38"   Gusts: NA
Location:  35.92°N, 89.8°W
Report Text: KHKA 281553Z AUTO 18011KT 10SM CLR 09/M02 A3038 RMK AO2 SLP287 T00941017 $
Loading
Personal Weather Stations






























Interactive Weather Map New forecast layout! Learn more

10-Day Weather Forecast

Advertisements
Track Severe Weather on mobile